createdAt,value
2023-02-05T00:01:35.738Z,95.70
2023-02-05T00:04:03.274Z,95.60
2023-02-05T00:06:30.368Z,95.50
2023-02-05T00:08:58.210Z,95.60
2023-02-05T00:11:26.192Z,95.60
2023-02-05T00:13:53.464Z,95.40
2023-02-05T00:16:23.107Z,95.70
2023-02-05T00:18:50.175Z,95.70
2023-02-05T00:21:18.355Z,95.70
2023-02-05T00:23:45.630Z,95.70
2023-02-05T00:26:15.963Z,95.60
2023-02-05T00:28:43.228Z,95.60
2023-02-05T00:31:16.616Z,95.50
2023-02-05T00:33:44.202Z,95.60
2023-02-05T00:36:13.064Z,95.70
2023-02-05T00:38:41.364Z,95.70
2023-02-05T00:41:08.884Z,95.70
2023-02-05T00:43:35.946Z,95.70
2023-02-05T00:46:03.375Z,95.80
2023-02-05T00:48:30.765Z,95.70
2023-02-05T00:50:57.870Z,95.70
2023-02-05T00:53:25.398Z,95.60
2023-02-05T00:55:53.358Z,95.70
2023-02-05T00:58:20.800Z,95.70
2023-02-05T01:00:49.616Z,95.70
2023-02-05T01:03:17.576Z,96.00
2023-02-05T01:05:44.805Z,95.70
2023-02-05T01:08:14.020Z,95.70
2023-02-05T01:10:46.560Z,95.70
2023-02-05T01:13:15.286Z,95.70
2023-02-05T01:15:44.800Z,95.80
2023-02-05T01:18:12.530Z,95.80
2023-02-05T01:20:41.339Z,95.80
2023-02-05T01:23:09.239Z,95.70
2023-02-05T01:25:36.475Z,95.80
2023-02-05T01:28:04.023Z,95.70
2023-02-05T01:30:31.305Z,95.80
2023-02-05T01:32:58.383Z,95.70
2023-02-05T01:35:25.494Z,95.90
2023-02-05T01:37:52.830Z,95.70
2023-02-05T01:40:21.199Z,95.80
2023-02-05T01:42:48.427Z,95.80
2023-02-05T01:45:32.781Z,95.80
2023-02-05T01:48:02.957Z,95.80
2023-02-05T01:50:36.510Z,95.80
2023-02-05T01:53:09.875Z,95.80
2023-02-05T01:55:42.235Z,95.90
2023-02-05T01:58:09.895Z,95.90
2023-02-05T02:00:37.138Z,96.00
2023-02-05T02:03:05.499Z,95.90
2023-02-05T02:05:32.980Z,95.90
2023-02-05T02:08:00.485Z,95.90
2023-02-05T02:10:27.902Z,95.90
2023-02-05T02:12:56.218Z,96.00
2023-02-05T02:15:27.416Z,95.90
2023-02-05T02:18:19.190Z,95.90
2023-02-05T02:21:06.972Z,96.00
2023-02-05T02:24:04.384Z,96.00
2023-02-05T02:26:40.708Z,95.90
2023-02-05T02:29:12.646Z,96.00
2023-02-05T02:31:51.084Z,96.00
2023-02-05T02:34:33.268Z,95.90
2023-02-05T02:37:25.258Z,96.00
2023-02-05T02:40:16.168Z,96.00
2023-02-05T02:42:49.222Z,96.00
2023-02-05T02:45:19.970Z,96.00
2023-02-05T02:47:56.365Z,96.10
2023-02-05T02:50:34.895Z,96.00
2023-02-05T02:53:08.472Z,96.00
2023-02-05T02:55:39.251Z,96.00
2023-02-05T02:58:12.738Z,96.00
2023-02-05T03:00:41.547Z,96.00
2023-02-05T03:03:11.358Z,96.00
2023-02-05T03:05:41.515Z,96.10
2023-02-05T03:08:19.470Z,96.10
2023-02-05T03:10:54.003Z,96.10
2023-02-05T03:13:21.205Z,96.00
2023-02-05T03:15:48.603Z,96.10
2023-02-05T03:18:18.368Z,96.00
2023-02-05T03:21:17.514Z,96.00
2023-02-05T03:23:45.316Z,96.00
2023-02-05T03:26:25.782Z,96.10
2023-02-05T03:28:56.801Z,96.10
2023-02-05T03:31:34.106Z,96.10
2023-02-05T03:34:47.905Z,96.10
2023-02-05T03:37:29.266Z,96.10
2023-02-05T03:40:05.345Z,96.10
2023-02-05T03:42:58.363Z,96.10
2023-02-05T03:45:46.591Z,96.10
2023-02-05T03:48:40.045Z,96.10
2023-02-05T03:51:13.244Z,96.10
2023-02-05T03:53:48.495Z,96.10
2023-02-05T03:56:26.775Z,96.10
2023-02-05T03:58:56.335Z,96.10
2023-02-05T04:01:24.880Z,96.10
2023-02-05T04:03:52.072Z,96.10
2023-02-05T04:06:19.428Z,96.10
2023-02-05T04:08:46.446Z,96.10
2023-02-05T04:11:13.988Z,96.10
2023-02-05T04:13:41.003Z,96.00
2023-02-05T04:16:08.048Z,96.10
2023-02-05T04:18:35.166Z,96.00
2023-02-05T04:21:02.255Z,96.10
2023-02-05T04:23:29.339Z,96.10
2023-02-05T04:25:56.714Z,96.10
2023-02-05T04:28:23.758Z,96.00
2023-02-05T04:30:50.771Z,96.00
2023-02-05T04:33:17.824Z,96.00
2023-02-05T04:35:44.904Z,96.00
2023-02-05T04:38:11.858Z,96.10
2023-02-05T04:40:38.906Z,96.10
2023-02-05T04:43:06.081Z,96.00
2023-02-05T04:45:33.778Z,96.00
2023-02-05T04:48:01.013Z,96.10
2023-02-05T04:50:28.243Z,96.10
2023-02-05T04:52:55.280Z,96.10
2023-02-05T04:55:22.428Z,96.10
2023-02-05T04:57:51.797Z,96.10
2023-02-05T05:00:20.188Z,96.00
2023-02-05T05:02:47.329Z,96.10
2023-02-05T05:05:14.551Z,96.10
2023-02-05T05:07:41.589Z,96.10
2023-02-05T05:10:09.417Z,96.10
2023-02-05T05:12:37.499Z,96.10
2023-02-05T05:15:08.397Z,96.10
2023-02-05T05:17:35.422Z,96.10
2023-02-05T05:20:02.932Z,96.10
2023-02-05T05:22:30.071Z,96.10
2023-02-05T05:24:57.063Z,96.10
2023-02-05T05:27:25.007Z,96.10
2023-02-05T05:29:52.187Z,96.10
2023-02-05T05:32:19.282Z,96.20
2023-02-05T05:34:46.373Z,96.20
2023-02-05T05:37:13.388Z,96.20
2023-02-05T05:39:58.922Z,96.20
2023-02-05T05:42:47.196Z,96.20
2023-02-05T05:45:14.230Z,96.20
2023-02-05T05:47:41.302Z,96.20
2023-02-05T05:50:08.624Z,96.10
2023-02-05T05:52:35.683Z,96.20
2023-02-05T05:55:02.672Z,96.20
2023-02-05T05:57:29.756Z,96.20
2023-02-05T05:59:56.831Z,96.20
2023-02-05T06:02:23.980Z,96.20
2023-02-05T06:04:51.104Z,96.20
2023-02-05T06:07:18.185Z,96.20
2023-02-05T06:09:45.198Z,96.20
2023-02-05T06:12:12.174Z,96.30
2023-02-05T06:14:39.393Z,96.20
2023-02-05T06:17:07.466Z,96.20
2023-02-05T06:19:34.523Z,96.30
2023-02-05T06:22:04.652Z,96.20
2023-02-05T06:24:31.712Z,96.20
2023-02-05T06:26:58.753Z,96.30
2023-02-05T06:29:25.796Z,96.30
2023-02-05T06:31:52.953Z,96.30
2023-02-05T06:34:20.017Z,96.30
2023-02-05T06:36:47.061Z,96.30
2023-02-05T06:39:14.060Z,96.30
2023-02-05T06:41:41.058Z,96.30
2023-02-05T06:44:08.195Z,96.40
2023-02-05T06:46:35.255Z,96.40
2023-02-05T06:49:02.267Z,96.40
2023-02-05T06:51:29.363Z,96.40
2023-02-05T06:53:57.473Z,96.40
2023-02-05T06:56:24.650Z,96.40
2023-02-05T06:58:51.807Z,96.40
2023-02-05T07:01:19.048Z,96.50
2023-02-05T07:03:48.569Z,96.40
2023-02-05T07:06:15.907Z,96.50
2023-02-05T07:08:43.113Z,96.50
2023-02-05T07:11:10.291Z,96.50
2023-02-05T07:13:37.316Z,96.50
2023-02-05T07:16:05.238Z,96.60
2023-02-05T07:18:34.098Z,96.50
2023-02-05T07:21:05.932Z,96.50
2023-02-05T07:23:33.232Z,96.50
2023-02-05T07:26:07.490Z,96.50
2023-02-05T07:28:34.585Z,96.60
2023-02-05T07:31:06.718Z,96.50
2023-02-05T07:33:34.114Z,96.60
2023-02-05T07:36:09.000Z,96.50
2023-02-05T07:38:37.838Z,96.60
2023-02-05T07:41:09.746Z,96.60
2023-02-05T07:43:37.764Z,96.60
2023-02-05T07:46:11.324Z,96.50
2023-02-05T07:48:39.172Z,96.50
2023-02-05T07:51:07.038Z,96.60
2023-02-05T07:53:34.311Z,96.50
2023-02-05T07:56:05.285Z,96.60
2023-02-05T07:58:32.540Z,96.60
2023-02-05T08:01:03.425Z,96.60
2023-02-05T08:03:31.372Z,96.60
2023-02-05T08:05:58.992Z,96.60
2023-02-05T08:08:26.083Z,96.70
2023-02-05T08:11:01.464Z,96.70
2023-02-05T08:13:28.761Z,96.70
2023-02-05T08:15:56.070Z,96.70
2023-02-05T08:18:23.683Z,96.70
2023-02-05T08:20:55.271Z,96.70
2023-02-05T08:23:22.506Z,96.70
2023-02-05T08:25:57.710Z,96.70
2023-02-05T08:28:26.943Z,96.80
2023-02-05T08:30:54.347Z,96.70
2023-02-05T08:33:21.496Z,96.80
2023-02-05T08:35:48.525Z,96.80
2023-02-05T08:38:15.667Z,96.80
2023-02-05T08:40:42.883Z,96.80
2023-02-05T08:43:09.931Z,97.10
2023-02-05T08:45:37.573Z,96.90
2023-02-05T08:48:04.978Z,96.80
2023-02-05T08:50:32.130Z,96.90
2023-02-05T08:52:59.168Z,96.80
2023-02-05T08:55:26.236Z,97.00
2023-02-05T08:57:53.241Z,96.90
2023-02-05T09:00:21.277Z,96.90
2023-02-05T09:02:48.368Z,97.00
2023-02-05T09:05:15.518Z,97.00
2023-02-05T09:07:42.753Z,96.90
2023-02-05T09:10:11.942Z,97.00
2023-02-05T09:12:39.289Z,96.90
2023-02-05T09:15:08.000Z,97.00
2023-02-05T09:17:35.292Z,97.10
2023-02-05T09:20:02.855Z,97.00
2023-02-05T09:22:30.029Z,97.10
2023-02-05T09:24:57.261Z,97.00
2023-02-05T09:27:24.474Z,97.10
2023-02-05T09:29:51.538Z,97.00
2023-02-05T09:32:18.654Z,97.10
2023-02-05T09:34:45.621Z,97.00
2023-02-05T09:37:16.662Z,97.10
2023-02-05T09:40:18.798Z,97.10
2023-02-05T09:43:02.966Z,97.20
2023-02-05T09:45:48.414Z,97.20
2023-02-05T09:48:39.919Z,97.20
2023-02-05T09:51:11.442Z,97.20
2023-02-05T09:53:45.426Z,97.20
2023-02-05T09:56:14.481Z,97.20
2023-02-05T09:58:48.574Z,97.20
2023-02-05T10:01:29.859Z,97.20
2023-02-05T10:04:01.434Z,97.20
2023-02-05T10:06:40.687Z,97.30
2023-02-05T10:09:30.085Z,97.30
2023-02-05T10:12:14.463Z,97.30
2023-02-05T10:14:55.113Z,97.30
2023-02-05T10:17:34.483Z,97.30
2023-02-05T10:20:25.717Z,97.30
2023-02-05T10:23:07.758Z,97.30
2023-02-05T10:26:00.788Z,97.30
2023-02-05T10:28:46.421Z,97.40
2023-02-05T10:31:25.464Z,97.40
2023-02-05T10:33:57.522Z,97.40
2023-02-05T10:36:26.953Z,97.40
2023-02-05T10:38:58.227Z,97.40
2023-02-05T10:41:36.684Z,97.40
2023-02-05T10:44:18.684Z,97.30
2023-02-05T10:46:51.834Z,97.40
2023-02-05T10:49:46.418Z,97.40
2023-02-05T10:52:15.423Z,97.40
2023-02-05T10:54:43.084Z,97.50
2023-02-05T10:57:18.586Z,97.40
2023-02-05T11:00:14.230Z,97.50
2023-02-05T11:02:47.893Z,97.50
2023-02-05T11:05:35.892Z,97.40
2023-02-05T11:08:03.191Z,97.50
2023-02-05T11:10:35.230Z,97.40
2023-02-05T11:13:32.992Z,97.50
2023-02-05T11:16:08.495Z,97.60
2023-02-05T11:18:47.180Z,97.60
2023-02-05T11:21:14.491Z,97.60
2023-02-05T11:23:56.061Z,97.50
2023-02-05T11:26:25.969Z,97.70
2023-02-05T11:28:53.062Z,97.60
2023-02-05T11:31:28.033Z,97.60
2023-02-05T11:34:21.187Z,97.70
2023-02-05T11:36:52.494Z,97.60
2023-02-05T11:39:28.699Z,97.70
2023-02-05T11:41:56.828Z,97.80
2023-02-05T11:44:32.127Z,97.70
2023-02-05T11:47:01.763Z,97.90
2023-02-05T11:49:35.140Z,97.80
2023-02-05T11:52:10.388Z,98.00
2023-02-05T11:54:38.987Z,97.90
2023-02-05T11:57:17.938Z,97.90
2023-02-05T12:00:09.123Z,97.80
2023-02-05T12:02:44.176Z,98.00
2023-02-05T12:05:17.020Z,97.90
2023-02-05T12:07:56.794Z,98.00
2023-02-05T12:10:43.456Z,97.90
2023-02-05T12:13:35.484Z,97.90
2023-02-05T12:16:17.585Z,98.00
2023-02-05T12:19:16.896Z,98.00
2023-02-05T12:21:51.713Z,98.10
2023-02-05T12:24:25.208Z,98.10
2023-02-05T12:27:17.572Z,98.20
2023-02-05T12:29:56.506Z,98.00
2023-02-05T12:32:38.273Z,98.10
2023-02-05T12:35:22.202Z,98.10
2023-02-05T12:37:49.183Z,98.10
2023-02-05T12:40:53.917Z,98.30
2023-02-05T12:43:42.239Z,98.20
2023-02-05T12:46:53.381Z,98.30
2023-02-05T12:49:38.433Z,98.30
2023-02-05T12:52:30.867Z,98.20
2023-02-05T12:55:14.059Z,98.20
2023-02-05T12:58:03.116Z,98.20
2023-02-05T13:00:39.742Z,98.30
2023-02-05T13:03:22.275Z,98.20
2023-02-05T13:05:57.023Z,98.20
2023-02-05T13:08:39.713Z,98.10
2023-02-05T13:11:24.495Z,98.10
2023-02-05T13:13:58.563Z,98.10
2023-02-05T13:16:51.026Z,98.00
2023-02-05T13:19:23.937Z,98.00
2023-02-05T13:22:13.883Z,98.00
2023-02-05T13:25:41.756Z,98.10
2023-02-05T13:28:42.981Z,98.10
2023-02-05T13:31:42.109Z,98.20
2023-02-05T13:34:12.998Z,98.10
2023-02-05T13:37:31.123Z,98.20
2023-02-05T13:40:26.708Z,98.20
2023-02-05T13:43:21.578Z,98.20
2023-02-05T13:45:57.674Z,98.20
2023-02-05T13:48:53.242Z,98.20
2023-02-05T13:51:43.148Z,98.20
2023-02-05T13:54:39.005Z,98.10
2023-02-05T13:57:27.470Z,98.20
2023-02-05T13:59:55.717Z,98.10
2023-02-05T14:02:39.126Z,98.10
2023-02-05T14:05:07.532Z,98.10
2023-02-05T14:07:47.155Z,98.10
2023-02-05T14:10:29.776Z,98.10
2023-02-05T14:13:24.545Z,98.10
2023-02-05T14:15:57.529Z,98.00
2023-02-05T14:18:43.532Z,98.00
2023-02-05T14:21:32.492Z,98.10
2023-02-05T14:24:03.289Z,98.10
2023-02-05T14:26:53.952Z,98.00
2023-02-05T14:29:51.528Z,98.10
2023-02-05T14:32:27.565Z,98.10
2023-02-05T14:35:00.615Z,98.10
2023-02-05T14:37:38.320Z,98.10
2023-02-05T14:40:39.028Z,98.10
2023-02-05T14:43:26.722Z,98.20
2023-02-05T14:45:55.076Z,98.20
2023-02-05T14:48:30.977Z,98.30
2023-02-05T14:51:40.631Z,98.90
2023-02-05T14:54:18.350Z,98.60
2023-02-05T14:56:47.141Z,98.60
2023-02-05T14:59:22.543Z,98.50
2023-02-05T15:01:54.387Z,98.50
2023-02-05T15:04:30.174Z,98.50
2023-02-05T15:07:01.413Z,98.50
2023-02-05T15:09:50.957Z,98.40
2023-02-05T15:13:02.751Z,98.40
2023-02-05T15:15:33.438Z,98.40
2023-02-05T15:18:12.807Z,98.40
2023-02-05T15:20:41.842Z,98.40
2023-02-05T15:23:25.352Z,98.40
2023-02-05T15:26:05.739Z,98.40
2023-02-05T15:28:51.477Z,98.40
2023-02-05T15:31:28.623Z,98.30
2023-02-05T15:34:09.542Z,98.30
2023-02-05T15:36:43.298Z,98.30
2023-02-05T15:39:45.257Z,98.30
2023-02-05T15:42:19.363Z,98.30
2023-02-05T15:44:48.192Z,98.20
2023-02-05T15:47:22.900Z,98.20
2023-02-05T15:49:57.597Z,98.20
2023-02-05T15:52:30.434Z,98.20
2023-02-05T15:55:01.448Z,98.20
2023-02-05T15:57:31.168Z,98.20
2023-02-05T16:00:00.603Z,98.10
2023-02-05T16:02:29.570Z,98.10
2023-02-05T16:05:18.038Z,98.10
2023-02-05T16:07:51.892Z,98.00
2023-02-05T16:10:22.836Z,98.00
2023-02-05T16:13:07.266Z,97.90
2023-02-05T16:15:43.119Z,97.80
2023-02-05T16:18:22.154Z,97.80
2023-02-05T16:20:55.641Z,97.80
2023-02-05T16:23:32.061Z,97.70
2023-02-05T16:26:25.534Z,97.80
2023-02-05T16:29:02.490Z,97.80
2023-02-05T16:31:31.950Z,97.70
2023-02-05T16:34:03.281Z,97.70
2023-02-05T16:36:34.863Z,97.60
2023-02-05T16:39:20.839Z,97.60
2023-02-05T16:42:05.118Z,97.50
2023-02-05T16:44:37.669Z,97.50
2023-02-05T16:47:17.039Z,97.50
2023-02-05T16:49:47.049Z,97.50
2023-02-05T16:52:35.512Z,97.60
2023-02-05T16:55:29.247Z,97.50
2023-02-05T16:58:03.091Z,97.60
2023-02-05T17:00:30.579Z,97.40
2023-02-05T17:03:08.325Z,97.50
2023-02-05T17:05:37.246Z,97.50
2023-02-05T17:08:09.562Z,97.50
2023-02-05T17:10:57.877Z,97.60
2023-02-05T17:13:33.334Z,97.40
2023-02-05T17:16:19.418Z,97.40
2023-02-05T17:19:01.517Z,97.50
2023-02-05T17:21:32.982Z,97.40
2023-02-05T17:24:03.012Z,97.50
2023-02-05T17:26:33.589Z,97.40
2023-02-05T17:29:04.953Z,97.50
2023-02-05T17:31:39.072Z,97.50
2023-02-05T17:34:06.781Z,97.70
2023-02-05T17:36:33.772Z,97.50
2023-02-05T17:39:01.060Z,97.50
2023-02-05T17:41:51.150Z,97.50
2023-02-05T17:44:19.115Z,97.50
2023-02-05T17:46:46.631Z,97.50
2023-02-05T17:49:13.868Z,97.40
2023-02-05T17:51:42.984Z,97.70
2023-02-05T17:54:19.430Z,97.50
2023-02-05T17:56:48.507Z,97.50
2023-02-05T17:59:21.121Z,97.40
2023-02-05T18:01:49.914Z,97.40
2023-02-05T18:04:18.805Z,97.50
2023-02-05T18:06:51.154Z,97.50
2023-02-05T18:09:20.110Z,97.60
2023-02-05T18:11:47.550Z,97.50
2023-02-05T18:14:19.056Z,97.50
2023-02-05T18:51:48.872Z,97.00
2023-02-05T18:54:15.974Z,97.10
2023-02-05T18:56:43.056Z,97.20
2023-02-05T18:59:14.396Z,97.00
2023-02-05T19:01:41.778Z,97.00
2023-02-05T19:04:13.148Z,97.10
2023-02-05T19:06:45.532Z,97.00
2023-02-05T19:09:12.777Z,97.00
2023-02-05T19:11:44.174Z,97.00
2023-02-05T19:14:14.107Z,96.90
2023-02-05T19:16:42.028Z,97.00
2023-02-05T19:19:10.818Z,97.00
2023-02-05T19:21:37.975Z,96.90
2023-02-05T19:24:07.276Z,96.90
2023-02-05T19:26:35.932Z,97.00
2023-02-05T19:29:06.243Z,97.00
2023-02-05T19:31:35.378Z,97.00
2023-02-05T19:34:02.812Z,96.90
2023-02-05T19:36:30.750Z,96.90
2023-02-05T19:39:00.682Z,96.80
2023-02-05T19:41:28.601Z,96.70
2023-02-05T19:43:58.100Z,96.70
2023-02-05T19:46:28.292Z,96.70
2023-02-05T19:48:56.326Z,96.90
2023-02-05T19:51:23.492Z,96.70
2023-02-05T19:53:50.883Z,96.70
2023-02-05T19:56:20.582Z,96.70
2023-02-05T19:58:51.081Z,96.80
2023-02-05T20:01:20.602Z,96.60
2023-02-05T20:03:47.843Z,96.60
2023-02-05T20:06:17.226Z,96.50
2023-02-05T20:08:45.675Z,96.60
2023-02-05T20:11:13.619Z,96.60
2023-02-05T20:13:41.932Z,96.70
2023-02-05T20:16:13.943Z,96.50
2023-02-05T20:18:41.853Z,96.60
2023-02-05T20:21:11.663Z,96.60
2023-02-05T20:23:39.122Z,96.50
2023-02-05T20:26:08.007Z,96.40
2023-02-05T20:28:59.778Z,96.50
2023-02-05T20:31:35.340Z,96.60
2023-02-05T20:34:06.022Z,96.60
2023-02-05T20:36:34.165Z,96.40
2023-02-05T20:39:07.120Z,96.50
2023-02-05T20:41:35.119Z,96.40
2023-02-05T20:44:03.374Z,96.40
2023-02-05T20:46:31.388Z,96.40
2023-02-05T20:49:00.549Z,96.50
2023-02-05T20:51:27.781Z,96.40
2023-02-05T20:53:59.272Z,96.50
2023-02-05T20:56:27.902Z,96.50
2023-02-05T20:58:57.624Z,96.50
2023-02-05T21:01:26.377Z,96.40
2023-02-05T21:03:57.900Z,96.40
2023-02-05T21:06:26.138Z,96.40
2023-02-05T21:08:53.778Z,96.40
2023-02-05T21:11:22.642Z,96.40
2023-02-05T21:13:50.738Z,96.30
2023-02-05T21:16:21.448Z,96.40
2023-02-05T21:18:51.634Z,96.40
2023-02-05T21:21:24.143Z,96.30
2023-02-05T21:23:56.361Z,96.40
2023-02-05T21:26:32.417Z,96.40
2023-02-05T21:29:02.677Z,96.40
2023-02-05T21:31:34.976Z,96.40
2023-02-05T21:34:07.693Z,96.40
2023-02-05T21:36:35.344Z,96.40
2023-02-05T21:39:03.003Z,96.40
2023-02-05T21:41:30.259Z,96.50
2023-02-05T21:43:59.873Z,96.50
2023-02-05T21:46:29.445Z,96.50
2023-02-05T21:48:58.883Z,96.60
2023-02-05T21:51:29.008Z,96.50
2023-02-05T21:53:59.034Z,96.50
2023-02-05T21:56:45.602Z,96.60
2023-02-05T21:59:13.175Z,96.60
2023-02-05T22:01:42.006Z,96.60
2023-02-05T22:04:13.079Z,96.60
2023-02-05T22:06:40.755Z,96.60
2023-02-05T22:09:10.048Z,96.60
2023-02-05T22:11:39.423Z,96.60
2023-02-05T22:14:07.170Z,96.50
2023-02-05T22:16:35.466Z,96.50
2023-02-05T22:19:03.551Z,96.50
2023-02-05T22:21:39.724Z,96.60
2023-02-05T22:24:08.400Z,96.50
2023-02-05T22:26:38.029Z,96.50
2023-02-05T22:29:07.416Z,96.90
2023-02-05T22:31:34.852Z,96.50
2023-02-05T22:34:02.411Z,96.40
2023-02-05T22:36:31.599Z,96.60
2023-02-05T22:38:59.110Z,96.50
2023-02-05T22:41:31.760Z,96.50
2023-02-05T22:44:00.418Z,96.50
2023-02-05T22:46:29.686Z,96.40
2023-02-05T22:48:59.497Z,96.40
2023-02-05T22:51:29.578Z,96.50
2023-02-05T22:53:56.687Z,96.40
2023-02-05T22:56:24.398Z,96.40
2023-02-05T22:58:52.592Z,96.40
2023-02-05T23:01:28.041Z,96.40
2023-02-05T23:03:56.897Z,96.40
2023-02-05T23:06:25.235Z,96.30
2023-02-05T23:08:57.409Z,96.60
2023-02-05T23:11:26.217Z,97.00
2023-02-05T23:13:53.328Z,97.10
2023-02-05T23:16:28.665Z,97.10
2023-02-05T23:18:58.321Z,97.10
2023-02-05T23:21:27.215Z,97.10
2023-02-05T23:23:54.985Z,97.10
2023-02-05T23:26:24.888Z,97.20
2023-02-05T23:28:53.842Z,97.00
2023-02-05T23:31:22.665Z,97.00
2023-02-05T23:33:50.354Z,96.90
2023-02-05T23:36:17.847Z,96.90
2023-02-05T23:38:45.220Z,96.90
2023-02-05T23:41:12.434Z,96.90
2023-02-05T23:43:40.011Z,96.80
2023-02-05T23:46:08.374Z,96.80
2023-02-05T23:48:35.587Z,96.80
2023-02-05T23:51:02.708Z,96.70
2023-02-05T23:53:29.832Z,96.80
2023-02-05T23:55:56.884Z,96.70
2023-02-05T23:58:26.014Z,96.70
